5H4

Harvey Municipal Airport

Harvey, North Dakota, USA
METAR K5H4 180015Z AUTO 24013KT 10SM OVC017 M10/M13 A3033 RMK AO2
Observed Flight Rules
Nov-18 @ 00:15 UTC (6 minutes ago) Marginal Visual Flight Rules
Wind Visibility Clouds
240° at 13 knots 10 miles
  • Overcast at 1,700' AGL
Temperatures Readings
Current -10°C / 14°F
Dewpoint -13°C / 9°F
Humidity 79%
Altimeter 30.33" Hg
Pressure 1027 hPa
Elevation 490
METAR K5H4 180015Z AUTO 24013KT 10SM OVC017 M10/M13 A3033 RMK AO2
Observed Flight Rules
Nov-18 @ 00:15 UTC
(6 minutes ago)
MVFR
Wind Visibility
240° at 13 knots 10 miles
Clouds
  • Overcast at 1,700' AGL
Temperature Dewpoint
-10°C / 14°F -13°C / 9°F
Humidity Altimeter Pressure
79% 30.33" Hg 1027 hPa